createdAt,value
2022-12-11T00:00:19.049Z,83.10
2022-12-11T00:01:19.043Z,86.70
2022-12-11T00:02:19.048Z,81.70
2022-12-11T00:03:19.075Z,81.20
2022-12-11T00:04:19.016Z,83.90
2022-12-11T00:05:19.224Z,84.80
2022-12-11T00:06:18.983Z,89.70
2022-12-11T00:07:18.963Z,83.30
2022-12-11T00:08:18.997Z,87.20
2022-12-11T00:09:19.922Z,95.20
2022-12-11T00:10:18.934Z,91.00
2022-12-11T00:11:18.929Z,83.80
2022-12-11T00:12:18.906Z,88.40
2022-12-11T00:13:18.894Z,88.50
2022-12-11T00:14:18.885Z,88.00
2022-12-11T00:15:18.874Z,97.00
2022-12-11T00:16:23.760Z,96.10
2022-12-11T00:17:19.841Z,91.60
2022-12-11T00:18:18.830Z,91.70
2022-12-11T00:19:18.836Z,102.50
2022-12-11T00:20:18.814Z,97.90
2022-12-11T00:21:18.795Z,102.60
2022-12-11T00:22:18.788Z,97.60
2022-12-11T00:23:18.775Z,93.80
2022-12-11T00:24:18.764Z,103.00
2022-12-11T00:25:18.788Z,94.10
2022-12-11T00:26:18.726Z,99.40
2022-12-11T00:27:18.716Z,96.90
2022-12-11T00:28:18.711Z,88.20
2022-12-11T00:29:18.706Z,83.40
2022-12-11T00:30:18.906Z,78.40
2022-12-11T00:31:18.774Z,79.80
2022-12-11T00:32:18.651Z,74.60
2022-12-11T00:33:18.657Z,69.10
2022-12-11T00:34:18.655Z,70.10
2022-12-11T00:35:18.617Z,75.90
2022-12-11T00:36:18.607Z,75.90
2022-12-11T00:37:18.634Z,67.90
2022-12-11T00:38:18.587Z,73.90
2022-12-11T00:39:18.578Z,73.00
2022-12-11T00:40:18.548Z,73.40
2022-12-11T00:41:18.548Z,74.20
2022-12-11T00:42:18.533Z,71.20
2022-12-11T00:43:18.518Z,71.10
2022-12-11T00:44:18.513Z,66.60
2022-12-11T00:45:18.498Z,73.70
2022-12-11T00:46:18.764Z,68.50
2022-12-11T00:47:18.468Z,72.60
2022-12-11T00:48:18.448Z,74.10
2022-12-11T00:49:18.725Z,68.00
2022-12-11T00:50:18.426Z,73.60
2022-12-11T00:51:18.423Z,73.60
2022-12-11T00:52:18.399Z,70.30
2022-12-11T00:53:18.404Z,70.20
2022-12-11T00:54:18.420Z,69.80
2022-12-11T00:55:18.388Z,68.20
2022-12-11T00:56:18.373Z,65.60
2022-12-11T00:57:18.348Z,59.80
2022-12-11T00:58:18.329Z,61.20
2022-12-11T00:59:18.330Z,65.70
2022-12-11T01:00:18.309Z,66.00
2022-12-11T01:01:18.327Z,68.70
2022-12-11T01:02:18.280Z,62.60
2022-12-11T01:03:18.266Z,65.90
2022-12-11T01:04:18.260Z,67.10
2022-12-11T01:05:18.268Z,70.70
2022-12-11T01:06:18.239Z,67.20
2022-12-11T01:07:18.218Z,66.20
2022-12-11T01:08:18.257Z,60.70
2022-12-11T01:09:18.200Z,65.50
2022-12-11T01:10:18.239Z,64.00
2022-12-11T01:11:18.167Z,66.30
2022-12-11T01:12:18.150Z,70.30
2022-12-11T01:13:18.149Z,75.20
2022-12-11T01:14:18.167Z,63.50
2022-12-11T01:15:18.118Z,73.50
2022-12-11T01:16:18.205Z,69.80
2022-12-11T01:17:18.104Z,76.10
2022-12-11T01:18:18.082Z,73.70
2022-12-11T01:19:18.076Z,74.00
2022-12-11T01:20:18.052Z,69.40
2022-12-11T01:21:18.052Z,69.20
2022-12-11T01:22:18.032Z,69.30
2022-12-11T01:23:18.038Z,70.30
2022-12-11T01:24:18.012Z,70.20
2022-12-11T01:25:17.992Z,71.60
2022-12-11T01:26:17.972Z,71.90
2022-12-11T01:27:17.968Z,67.70
2022-12-11T01:28:17.959Z,66.40
2022-12-11T01:29:17.956Z,72.20
2022-12-11T01:30:17.938Z,77.80
2022-12-11T01:31:17.953Z,71.00
2022-12-11T01:32:17.903Z,66.60
2022-12-11T01:33:17.909Z,73.50
2022-12-11T01:34:17.894Z,79.20
2022-12-11T01:35:18.823Z,69.40
2022-12-11T01:36:17.886Z,78.80
2022-12-11T01:37:17.843Z,79.90
2022-12-11T01:38:17.832Z,75.80
2022-12-11T01:39:17.834Z,76.80
2022-12-11T01:40:17.804Z,79.20
2022-12-11T01:41:17.789Z,78.90
2022-12-11T01:42:17.799Z,73.60
2022-12-11T01:43:17.771Z,78.10
2022-12-11T01:44:17.768Z,78.80
2022-12-11T01:45:17.746Z,70.30
2022-12-11T01:46:17.827Z,77.00
2022-12-11T01:47:17.714Z,74.40
2022-12-11T01:48:17.736Z,62.40
2022-12-11T01:49:17.696Z,39.00
2022-12-11T01:50:17.715Z,40.50
2022-12-11T01:51:17.696Z,35.90
2022-12-11T01:52:17.715Z,35.30
2022-12-11T01:53:17.673Z,36.20
2022-12-11T01:54:17.639Z,37.30
2022-12-11T01:55:17.615Z,35.30
2022-12-11T01:56:17.607Z,36.60
2022-12-11T01:57:17.586Z,33.80
2022-12-11T01:58:17.575Z,32.40
2022-12-11T01:59:17.803Z,33.10
2022-12-11T02:00:18.247Z,32.30
2022-12-11T02:01:17.597Z,31.60
2022-12-11T02:02:17.589Z,33.30
2022-12-11T02:03:17.517Z,31.10
2022-12-11T02:04:17.515Z,31.10
2022-12-11T02:05:17.498Z,30.70
2022-12-11T02:06:17.480Z,32.00
2022-12-11T02:07:17.477Z,31.10
2022-12-11T02:08:17.575Z,33.30
2022-12-11T02:09:17.449Z,31.70
2022-12-11T02:10:17.444Z,29.70
2022-12-11T02:11:17.414Z,31.90
2022-12-11T02:12:17.418Z,32.70
2022-12-11T02:13:17.388Z,33.30
2022-12-11T02:14:17.406Z,32.80
2022-12-11T02:15:17.376Z,33.80
2022-12-11T02:16:17.423Z,33.20
2022-12-11T02:17:17.339Z,31.80
2022-12-11T02:18:17.328Z,32.00
2022-12-11T02:19:17.328Z,33.70
2022-12-11T02:20:17.310Z,32.60
2022-12-11T02:21:17.290Z,32.90
2022-12-11T02:22:17.279Z,33.20
2022-12-11T02:23:17.276Z,33.40
2022-12-11T02:24:17.271Z,32.10
2022-12-11T02:25:17.236Z,31.90
2022-12-11T02:26:17.247Z,32.00
2022-12-11T02:27:17.210Z,31.50
2022-12-11T02:28:17.208Z,32.60
2022-12-11T02:29:17.200Z,31.50
2022-12-11T02:30:17.188Z,31.40
2022-12-11T02:31:17.188Z,31.80
2022-12-11T02:32:17.160Z,31.90
2022-12-11T02:33:17.150Z,30.80
2022-12-11T02:34:17.156Z,31.80
2022-12-11T02:35:17.112Z,31.30
2022-12-11T02:36:17.348Z,29.00
2022-12-11T02:37:17.331Z,29.60
2022-12-11T02:38:17.081Z,28.10
2022-12-11T02:39:17.077Z,31.40
2022-12-11T02:40:17.061Z,28.90
2022-12-11T02:41:17.031Z,27.40
2022-12-11T02:42:17.022Z,28.30
2022-12-11T02:43:17.016Z,27.00
2022-12-11T02:44:17.022Z,27.70
2022-12-11T02:45:16.999Z,28.70
2022-12-11T02:46:17.030Z,29.20
2022-12-11T02:47:16.964Z,28.70
2022-12-11T02:48:16.951Z,28.70
2022-12-11T02:49:16.950Z,26.90
2022-12-11T02:50:17.870Z,26.70
2022-12-11T02:51:16.911Z,27.70
2022-12-11T02:52:16.891Z,26.30
2022-12-11T02:53:16.884Z,25.10
2022-12-11T02:54:16.890Z,25.60
2022-12-11T02:55:16.863Z,26.90
2022-12-11T02:56:16.850Z,27.40
2022-12-11T02:57:16.839Z,26.30
2022-12-11T02:58:16.812Z,25.40
2022-12-11T02:59:16.820Z,26.40
2022-12-11T03:00:16.788Z,26.00
2022-12-11T03:01:16.828Z,27.00
2022-12-11T03:02:16.843Z,26.00
2022-12-11T03:03:16.761Z,26.90
2022-12-11T03:04:16.755Z,27.00
2022-12-11T03:05:16.742Z,27.00
2022-12-11T03:06:16.712Z,27.60
2022-12-11T03:07:16.713Z,27.90
2022-12-11T03:08:16.728Z,27.60
2022-12-11T03:09:16.685Z,25.40
2022-12-11T03:10:16.660Z,26.10
2022-12-11T03:11:16.654Z,26.80
2022-12-11T03:12:16.643Z,26.20
2022-12-11T03:13:16.634Z,27.90
2022-12-11T03:14:16.638Z,27.20
2022-12-11T03:15:16.604Z,27.30
2022-12-11T03:16:16.647Z,27.60
2022-12-11T03:17:16.590Z,26.50
2022-12-11T03:18:16.803Z,27.00
2022-12-11T03:19:16.565Z,28.40
2022-12-11T03:20:16.537Z,27.20
2022-12-11T03:21:16.535Z,26.80
2022-12-11T03:22:16.527Z,27.90
2022-12-11T03:23:16.513Z,28.70
2022-12-11T03:24:16.495Z,28.20
2022-12-11T03:25:16.491Z,27.80
2022-12-11T03:26:16.476Z,29.10
2022-12-11T03:27:16.466Z,28.20
2022-12-11T03:28:16.436Z,28.80
2022-12-11T03:29:16.456Z,26.70
2022-12-11T03:30:16.430Z,28.40
2022-12-11T03:31:16.679Z,27.00
2022-12-11T03:32:16.389Z,27.20
2022-12-11T03:33:17.178Z,26.60
2022-12-11T03:34:16.373Z,26.50
2022-12-11T03:35:16.675Z,25.00
2022-12-11T03:36:16.339Z,27.70
2022-12-11T03:37:16.329Z,27.30
2022-12-11T03:38:16.340Z,27.50
2022-12-11T03:39:16.315Z,27.40
2022-12-11T03:40:16.296Z,27.70
2022-12-11T03:41:16.274Z,27.70
2022-12-11T03:42:16.266Z,26.80
2022-12-11T03:43:16.256Z,27.40
2022-12-11T03:44:16.248Z,27.20
2022-12-11T03:45:16.226Z,26.90
2022-12-11T03:46:16.248Z,26.70
2022-12-11T03:47:17.160Z,26.30
2022-12-11T03:48:16.187Z,26.90
2022-12-11T03:49:16.198Z,27.40
2022-12-11T03:50:16.161Z,27.70
2022-12-11T03:51:16.154Z,27.60
2022-12-11T03:52:16.141Z,27.40
2022-12-11T03:53:16.148Z,27.30
2022-12-11T03:54:16.148Z,27.60
2022-12-11T03:55:16.111Z,28.10
2022-12-11T03:56:16.083Z,27.20
2022-12-11T03:57:16.079Z,27.00
2022-12-11T03:58:16.057Z,27.70
2022-12-11T03:59:16.068Z,28.70
2022-12-11T04:00:16.034Z,28.30
2022-12-11T04:01:16.024Z,27.90
2022-12-11T04:02:16.010Z,28.30
2022-12-11T04:03:16.959Z,27.50
2022-12-11T04:04:16.586Z,28.00
2022-12-11T04:05:15.978Z,30.10
2022-12-11T04:06:15.959Z,28.20
2022-12-11T04:07:15.950Z,26.50
2022-12-11T04:08:16.976Z,27.30
2022-12-11T04:09:15.939Z,26.80
2022-12-11T04:10:15.908Z,28.40
2022-12-11T04:11:16.701Z,28.30
2022-12-11T04:12:15.891Z,25.60
2022-12-11T04:13:16.022Z,25.80
2022-12-11T04:14:15.872Z,26.30
2022-12-11T04:15:15.857Z,25.10
2022-12-11T04:16:15.868Z,26.90
2022-12-11T04:17:15.829Z,26.50
2022-12-11T04:18:15.811Z,25.60
2022-12-11T04:19:15.820Z,26.70
2022-12-11T04:20:15.782Z,27.50
2022-12-11T04:21:15.783Z,27.30
2022-12-11T04:22:15.779Z,28.30
2022-12-11T04:23:15.742Z,27.30
2022-12-11T04:24:15.752Z,29.60
2022-12-11T04:25:15.719Z,28.40
2022-12-11T04:26:15.712Z,29.00
2022-12-11T04:27:15.694Z,27.70
2022-12-11T04:28:15.932Z,28.60
2022-12-11T04:29:15.681Z,28.90
2022-12-11T04:30:15.653Z,27.60
2022-12-11T04:31:15.695Z,27.70
2022-12-11T04:32:15.633Z,29.80
2022-12-11T04:33:16.580Z,28.40
2022-12-11T04:34:15.619Z,28.20
2022-12-11T04:35:15.603Z,28.70
2022-12-11T04:36:15.584Z,28.30
2022-12-11T04:37:15.563Z,29.40
2022-12-11T04:38:15.553Z,29.30
2022-12-11T04:39:15.554Z,28.70
2022-12-11T04:40:15.526Z,27.80
2022-12-11T04:41:15.518Z,27.30
2022-12-11T04:42:15.755Z,29.10
2022-12-11T04:43:15.507Z,26.70
2022-12-11T04:44:15.494Z,27.40
2022-12-11T04:45:16.428Z,28.30
2022-12-11T04:46:15.528Z,27.90
2022-12-11T04:47:15.456Z,26.10
2022-12-11T04:48:16.382Z,27.30
2022-12-11T04:49:15.434Z,26.80
2022-12-11T04:50:15.424Z,26.30
2022-12-11T04:51:15.398Z,25.70
2022-12-11T04:52:15.377Z,27.90
2022-12-11T04:53:15.374Z,26.90
2022-12-11T04:54:15.357Z,26.90
2022-12-11T04:55:15.346Z,26.90
2022-12-11T04:56:15.335Z,27.70
2022-12-11T04:57:15.315Z,28.30
2022-12-11T04:58:15.306Z,25.60
2022-12-11T04:59:15.314Z,27.70
2022-12-11T05:00:15.283Z,28.00
2022-12-11T05:01:15.307Z,29.30
2022-12-11T05:02:15.246Z,27.40
2022-12-11T05:03:15.237Z,27.40
2022-12-11T05:04:15.236Z,28.00
2022-12-11T05:05:15.230Z,28.50
2022-12-11T05:06:15.209Z,27.50
2022-12-11T05:07:15.186Z,30.40
2022-12-11T05:08:15.204Z,28.40
2022-12-11T05:09:15.425Z,30.00
2022-12-11T05:10:15.147Z,30.30
2022-12-11T05:11:15.139Z,29.40
2022-12-11T05:12:15.128Z,28.90
2022-12-11T05:13:15.116Z,28.30
2022-12-11T05:14:15.109Z,27.30
2022-12-11T05:15:15.084Z,26.90
2022-12-11T05:16:15.118Z,26.20
2022-12-11T05:17:15.055Z,27.80
2022-12-11T05:18:15.047Z,26.70
2022-12-11T05:19:15.138Z,26.00
2022-12-11T05:20:15.024Z,27.00
2022-12-11T05:21:15.012Z,28.70
2022-12-11T05:22:14.998Z,26.50
2022-12-11T05:23:14.989Z,27.30
2022-12-11T05:24:14.979Z,26.40
2022-12-11T05:25:14.957Z,28.50
2022-12-11T05:26:14.948Z,25.80
2022-12-11T05:27:14.951Z,28.00
2022-12-11T05:28:14.920Z,25.90
2022-12-11T05:29:14.926Z,24.60
2022-12-11T05:30:14.898Z,27.10
2022-12-11T05:31:14.966Z,26.40
2022-12-11T05:32:14.869Z,25.50
2022-12-11T05:33:14.856Z,28.40
2022-12-11T05:34:14.850Z,26.90
2022-12-11T05:35:14.829Z,24.10
2022-12-11T05:36:14.820Z,25.10
2022-12-11T05:37:14.810Z,25.80
2022-12-11T05:38:14.797Z,26.10
2022-12-11T05:39:14.790Z,25.90
2022-12-11T05:40:14.761Z,26.60
2022-12-11T05:41:14.750Z,24.70
2022-12-11T05:42:14.741Z,25.90
2022-12-11T05:43:14.730Z,25.70
2022-12-11T05:44:14.732Z,25.60
2022-12-11T05:45:14.696Z,26.50
2022-12-11T05:46:14.775Z,24.30
2022-12-11T05:47:14.682Z,23.30
2022-12-11T05:48:14.673Z,23.80
2022-12-11T05:49:17.479Z,24.10
2022-12-11T05:50:15.883Z,23.70
2022-12-11T05:51:14.631Z,23.20
2022-12-11T05:52:14.625Z,24.30
2022-12-11T05:53:14.602Z,22.80
2022-12-11T05:54:14.603Z,24.60
2022-12-11T05:55:14.581Z,22.50
2022-12-11T05:56:14.571Z,23.30
2022-12-11T05:57:14.552Z,23.30
2022-12-11T05:58:14.539Z,23.80
2022-12-11T05:59:14.545Z,23.20
2022-12-11T06:00:14.513Z,21.90
2022-12-11T06:01:14.501Z,22.80
2022-12-11T06:02:14.568Z,23.30
2022-12-11T06:03:14.603Z,23.40
2022-12-11T06:04:14.483Z,22.70
2022-12-11T06:05:14.461Z,25.00
2022-12-11T06:06:14.444Z,23.90
2022-12-11T06:07:14.431Z,23.70
2022-12-11T06:08:14.428Z,24.80
2022-12-11T06:09:14.402Z,24.40
2022-12-11T06:10:14.393Z,25.60
2022-12-11T06:11:17.284Z,26.20
2022-12-11T06:12:15.365Z,24.70
2022-12-11T06:13:14.343Z,23.90
2022-12-11T06:14:14.345Z,25.60
2022-12-11T06:15:14.331Z,24.90
2022-12-11T06:16:14.354Z,24.20
2022-12-11T06:17:14.295Z,24.30
2022-12-11T06:18:14.285Z,23.70
2022-12-11T06:19:14.285Z,25.00
2022-12-11T06:20:14.266Z,27.50
2022-12-11T06:21:14.247Z,26.80
2022-12-11T06:22:14.237Z,27.30
2022-12-11T06:23:14.238Z,25.50
2022-12-11T06:24:14.215Z,26.50
2022-12-11T06:25:14.363Z,27.90
2022-12-11T06:26:14.186Z,26.50
2022-12-11T06:27:14.195Z,26.30
2022-12-11T06:28:14.175Z,27.80
2022-12-11T06:29:14.156Z,27.20
2022-12-11T06:30:14.136Z,26.60
2022-12-11T06:31:14.198Z,26.20
2022-12-11T06:32:14.116Z,25.80
2022-12-11T06:33:14.109Z,24.20
2022-12-11T06:34:14.105Z,24.50
2022-12-11T06:35:14.102Z,23.80
2022-12-11T06:36:14.075Z,22.40
2022-12-11T06:37:14.055Z,24.10
2022-12-11T06:38:14.047Z,24.30
2022-12-11T06:39:14.026Z,24.00
2022-12-11T06:40:14.007Z,25.30
2022-12-11T06:41:14.003Z,25.40
2022-12-11T06:42:13.989Z,25.60
2022-12-11T06:43:13.978Z,25.00
2022-12-11T06:44:13.984Z,23.30
2022-12-11T06:45:13.967Z,23.10
2022-12-11T06:46:14.008Z,23.60
2022-12-11T06:47:13.926Z,22.20
2022-12-11T06:48:13.908Z,22.90
2022-12-11T06:49:13.938Z,23.20
2022-12-11T06:50:13.885Z,23.50
2022-12-11T06:51:13.872Z,24.50
2022-12-11T06:52:18.405Z,22.00
2022-12-11T06:53:13.852Z,22.10
2022-12-11T06:54:13.838Z,24.40
2022-12-11T06:55:14.095Z,23.30
2022-12-11T06:56:13.822Z,21.80
2022-12-11T06:57:13.800Z,22.70
2022-12-11T06:58:13.809Z,24.30
2022-12-11T06:59:13.802Z,24.90
2022-12-11T07:00:13.772Z,23.60
2022-12-11T07:01:13.818Z,21.40
2022-12-11T07:02:13.782Z,21.60
2022-12-11T07:03:13.735Z,22.50
2022-12-11T07:04:13.724Z,23.40
2022-12-11T07:05:13.831Z,22.60
2022-12-11T07:06:13.681Z,24.20
2022-12-11T07:07:13.669Z,22.50
2022-12-11T07:08:13.744Z,22.40
2022-12-11T07:09:13.662Z,22.10
2022-12-11T07:10:13.640Z,21.30
2022-12-11T07:11:13.632Z,22.10
2022-12-11T07:12:13.622Z,22.60
2022-12-11T07:13:13.611Z,22.60
2022-12-11T07:14:13.601Z,21.60
2022-12-11T07:15:13.872Z,20.20
2022-12-11T07:16:13.649Z,21.50
2022-12-11T07:17:13.558Z,21.90
2022-12-11T07:18:13.532Z,22.20
2022-12-11T07:19:13.535Z,21.80
2022-12-11T07:20:13.521Z,22.40
2022-12-11T07:21:13.502Z,21.70
2022-12-11T07:22:13.497Z,21.90
2022-12-11T07:23:13.477Z,23.70
2022-12-11T07:24:13.492Z,23.00
2022-12-11T07:25:13.641Z,22.50
2022-12-11T07:26:13.439Z,22.80
2022-12-11T07:27:13.461Z,22.70
2022-12-11T07:28:16.643Z,24.70
2022-12-11T07:29:13.444Z,24.00
2022-12-11T07:30:13.403Z,24.90
2022-12-11T07:31:13.372Z,25.10
2022-12-11T07:32:13.488Z,24.50
2022-12-11T07:33:13.343Z,23.10
2022-12-11T07:34:13.372Z,24.00
2022-12-11T07:35:13.670Z,25.40
2022-12-11T07:36:13.313Z,26.10
2022-12-11T07:37:13.305Z,24.40
2022-12-11T07:38:13.293Z,24.30
2022-12-11T07:39:13.287Z,24.40
2022-12-11T07:40:13.265Z,24.30
2022-12-11T07:41:13.247Z,24.10
2022-12-11T07:42:13.237Z,24.20
2022-12-11T07:43:13.223Z,23.60
2022-12-11T07:44:13.224Z,24.70
2022-12-11T07:45:13.446Z,25.20
2022-12-11T07:46:13.290Z,25.00
2022-12-11T07:47:13.171Z,23.80
2022-12-11T07:48:13.161Z,24.10
2022-12-11T07:49:13.154Z,24.10
2022-12-11T07:50:13.134Z,25.40
2022-12-11T07:51:13.127Z,24.70
2022-12-11T07:52:13.106Z,24.40
2022-12-11T07:53:13.093Z,23.70
2022-12-11T07:54:13.092Z,24.00
2022-12-11T07:55:13.375Z,24.60
2022-12-11T07:56:13.071Z,23.80
2022-12-11T07:57:14.384Z,23.40
2022-12-11T07:58:13.039Z,24.10
2022-12-11T07:59:13.027Z,24.50
2022-12-11T08:00:13.015Z,24.70
2022-12-11T08:01:13.029Z,23.10
2022-12-11T08:02:13.036Z,22.50
2022-12-11T08:03:12.977Z,23.30
2022-12-11T08:04:12.978Z,23.10
2022-12-11T08:05:13.111Z,24.00
2022-12-11T08:06:12.936Z,23.40
2022-12-11T08:07:12.923Z,23.90
2022-12-11T08:08:12.947Z,22.40
2022-12-11T08:09:20.730Z,23.00
2022-12-11T08:10:13.888Z,25.30
2022-12-11T08:11:12.889Z,23.70
2022-12-11T08:12:12.882Z,25.50
2022-12-11T08:13:12.867Z,23.30
2022-12-11T08:14:12.857Z,27.90
2022-12-11T08:15:13.892Z,38.40
2022-12-11T08:16:12.998Z,34.50
2022-12-11T08:17:12.798Z,23.60
2022-12-11T08:18:12.787Z,24.20
2022-12-11T08:19:12.781Z,23.50
2022-12-11T08:20:12.758Z,23.90
2022-12-11T08:21:12.756Z,23.40
2022-12-11T08:22:12.745Z,29.10
2022-12-11T08:23:12.728Z,32.40
2022-12-11T08:24:12.718Z,87.50
2022-12-11T08:25:13.050Z,22.20
2022-12-11T08:26:12.690Z,22.40
2022-12-11T08:27:12.670Z,22.90
2022-12-11T08:28:12.659Z,22.60
2022-12-11T08:29:12.665Z,26.30
2022-12-11T08:30:12.639Z,23.40
2022-12-11T08:31:12.693Z,24.20
2022-12-11T08:32:12.724Z,24.00
2022-12-11T08:33:12.602Z,22.00
2022-12-11T08:34:12.600Z,23.20
2022-12-11T08:35:12.646Z,23.10
2022-12-11T08:36:12.562Z,21.90
2022-12-11T08:37:12.543Z,23.20
2022-12-11T08:38:12.530Z,22.20
2022-12-11T08:39:12.555Z,22.00
2022-12-11T08:40:12.541Z,23.00
2022-12-11T08:41:12.531Z,21.30
2022-12-11T08:42:12.480Z,23.40
2022-12-11T08:43:12.480Z,21.70
2022-12-11T08:44:16.301Z,21.90
2022-12-11T08:45:12.573Z,21.90
2022-12-11T08:46:12.480Z,22.80
2022-12-11T08:47:12.419Z,22.20
2022-12-11T08:48:12.424Z,21.70
2022-12-11T08:49:12.401Z,23.10
2022-12-11T08:50:12.388Z,23.90
2022-12-11T08:51:12.381Z,22.70
2022-12-11T08:52:12.361Z,23.00
2022-12-11T08:53:12.343Z,21.60
2022-12-11T08:54:12.352Z,22.30
2022-12-11T08:55:12.586Z,20.80
2022-12-11T08:56:12.314Z,22.50
2022-12-11T08:57:12.293Z,22.20
2022-12-11T08:58:12.282Z,24.40
2022-12-11T08:59:12.273Z,23.00
2022-12-11T09:00:12.263Z,22.40
2022-12-11T09:01:12.351Z,23.60
2022-12-11T09:02:12.275Z,25.40
2022-12-11T09:03:13.058Z,27.30
2022-12-11T09:04:12.224Z,25.20
2022-12-11T09:05:12.614Z,25.50
2022-12-11T09:06:12.183Z,28.60
2022-12-11T09:07:12.174Z,25.80
2022-12-11T09:08:12.243Z,28.60
2022-12-11T09:09:12.165Z,28.30
2022-12-11T09:10:12.145Z,31.10
2022-12-11T09:11:12.125Z,26.70
2022-12-11T09:12:12.365Z,26.30
2022-12-11T09:13:12.094Z,26.70
2022-12-11T09:14:12.105Z,26.30
2022-12-11T09:15:12.377Z,27.10
2022-12-11T09:16:12.130Z,27.00
2022-12-11T09:17:12.045Z,27.30
2022-12-11T09:18:12.043Z,30.20
2022-12-11T09:19:12.025Z,28.40
2022-12-11T09:20:12.004Z,29.00
2022-12-11T09:21:11.993Z,28.20
2022-12-11T09:22:11.985Z,30.00
2022-12-11T09:23:11.963Z,25.50
2022-12-11T09:24:11.966Z,25.30
2022-12-11T09:25:12.100Z,24.00
2022-12-11T09:26:11.928Z,25.70
2022-12-11T09:27:11.917Z,25.40
2022-12-11T09:28:11.909Z,26.20
2022-12-11T09:29:11.908Z,25.20
2022-12-11T09:30:11.879Z,26.10
2022-12-11T09:31:11.909Z,24.50
2022-12-11T09:32:11.856Z,25.90
2022-12-11T09:33:11.839Z,27.20
2022-12-11T09:34:11.855Z,27.30
2022-12-11T09:35:12.068Z,27.00
2022-12-11T09:36:11.821Z,26.40
2022-12-11T09:37:11.788Z,25.40
2022-12-11T09:38:11.789Z,23.80
2022-12-11T09:39:11.769Z,27.10
2022-12-11T09:40:11.761Z,27.80
2022-12-11T09:41:11.748Z,27.40
2022-12-11T09:42:11.739Z,26.50
2022-12-11T09:43:11.718Z,26.70
2022-12-11T09:44:11.716Z,25.90
2022-12-11T09:45:11.870Z,27.00
2022-12-11T09:46:11.705Z,29.10
2022-12-11T09:47:11.672Z,27.70
2022-12-11T09:48:11.682Z,28.10
2022-12-11T09:49:11.649Z,26.90
2022-12-11T09:50:11.682Z,28.00
2022-12-11T09:51:11.621Z,26.40
2022-12-11T09:52:11.611Z,26.90
2022-12-11T09:53:11.591Z,28.50
2022-12-11T09:54:11.590Z,29.10
2022-12-11T09:55:11.801Z,29.00
2022-12-11T09:56:11.560Z,27.70
2022-12-11T09:57:11.549Z,27.50
2022-12-11T09:58:11.532Z,27.60
2022-12-11T09:59:11.551Z,27.50
2022-12-11T10:00:11.533Z,28.30
2022-12-11T10:01:11.543Z,30.20
2022-12-11T10:02:11.524Z,30.50
2022-12-11T10:03:11.481Z,28.80
2022-12-11T10:04:11.483Z,32.00
2022-12-11T10:05:11.602Z,36.10
2022-12-11T10:06:11.442Z,37.20
2022-12-11T10:07:11.432Z,31.60
2022-12-11T10:08:11.458Z,33.20
2022-12-11T10:09:11.411Z,32.80
2022-12-11T10:10:11.381Z,31.90
2022-12-11T10:11:11.387Z,29.60
2022-12-11T10:12:11.363Z,30.20
2022-12-11T10:13:11.350Z,31.40
2022-12-11T10:14:11.361Z,30.30
2022-12-11T10:15:11.436Z,29.80
2022-12-11T10:16:11.360Z,31.90
2022-12-11T10:17:11.298Z,29.70
2022-12-11T10:18:11.282Z,28.40
2022-12-11T10:19:11.283Z,30.10
2022-12-11T10:20:11.274Z,32.10
2022-12-11T10:21:11.250Z,28.80
2022-12-11T10:22:11.233Z,31.20
2022-12-11T10:23:11.243Z,29.90
2022-12-11T10:24:11.222Z,32.20
2022-12-11T10:25:12.411Z,33.00
2022-12-11T10:26:11.179Z,34.20
2022-12-11T10:27:11.184Z,35.60
2022-12-11T10:28:11.405Z,33.60
2022-12-11T10:29:11.160Z,33.10
2022-12-11T10:30:11.136Z,33.30
2022-12-11T10:31:11.184Z,33.10
2022-12-11T10:32:11.116Z,34.00
2022-12-11T10:33:11.118Z,31.90
2022-12-11T10:34:11.096Z,33.90
2022-12-11T10:35:11.375Z,32.20
2022-12-11T10:36:11.068Z,32.60
2022-12-11T10:37:11.056Z,31.80
2022-12-11T10:38:11.035Z,33.20
2022-12-11T10:39:11.048Z,33.90
2022-12-11T10:40:11.262Z,32.50
2022-12-11T10:41:11.006Z,33.40
2022-12-11T10:42:10.998Z,33.40
2022-12-11T10:43:10.977Z,32.90
2022-12-11T10:44:10.976Z,33.90
2022-12-11T10:45:11.162Z,34.30
2022-12-11T10:46:10.987Z,31.80
2022-12-11T10:47:10.938Z,31.90
2022-12-11T10:48:10.913Z,30.60
2022-12-11T10:49:10.928Z,33.10
2022-12-11T10:50:10.910Z,32.30
2022-12-11T10:51:10.909Z,32.10
2022-12-11T10:52:10.887Z,30.50
2022-12-11T10:53:10.860Z,30.80
2022-12-11T10:54:10.852Z,31.50
2022-12-11T10:55:11.112Z,33.20
2022-12-11T10:56:10.829Z,34.70
2022-12-11T10:57:10.808Z,30.90
2022-12-11T10:58:10.800Z,31.40
2022-12-11T10:59:10.805Z,31.50
2022-12-11T11:00:10.769Z,32.00
2022-12-11T11:01:10.914Z,29.30
2022-12-11T11:02:10.748Z,29.90
2022-12-11T11:03:10.754Z,29.80
2022-12-11T11:04:10.730Z,29.00
2022-12-11T11:05:10.848Z,28.90
2022-12-11T11:06:10.689Z,27.70
2022-12-11T11:07:10.690Z,28.80
2022-12-11T11:08:10.691Z,28.60
2022-12-11T11:09:10.670Z,28.30
2022-12-11T11:10:10.655Z,28.40
2022-12-11T11:11:10.632Z,28.00
2022-12-11T11:12:10.621Z,28.30
2022-12-11T11:13:10.621Z,29.50
2022-12-11T11:14:10.603Z,28.40
2022-12-11T11:15:10.801Z,29.90
2022-12-11T11:16:10.622Z,28.90
2022-12-11T11:17:10.562Z,28.30
2022-12-11T11:18:10.545Z,28.10
2022-12-11T11:19:10.541Z,28.10
2022-12-11T11:20:10.530Z,28.20
2022-12-11T11:21:10.509Z,30.10
2022-12-11T11:22:10.491Z,29.30
2022-12-11T11:23:10.492Z,30.80
2022-12-11T11:24:10.484Z,29.90
2022-12-11T11:25:10.814Z,25.90
2022-12-11T11:26:10.443Z,25.00
2022-12-11T11:27:14.033Z,23.10
2022-12-11T11:28:10.473Z,28.60
2022-12-11T11:29:10.423Z,31.70
2022-12-11T11:30:10.392Z,23.80
2022-12-11T11:31:10.506Z,25.60
2022-12-11T11:32:10.373Z,24.90
2022-12-11T11:33:10.363Z,26.70
2022-12-11T11:34:10.353Z,25.20
2022-12-11T11:35:10.515Z,25.80
2022-12-11T11:36:10.314Z,27.10
2022-12-11T11:37:10.314Z,26.30
2022-12-11T11:38:10.294Z,26.70
2022-12-11T11:39:10.310Z,26.60
2022-12-11T11:40:10.274Z,26.20
2022-12-11T11:41:14.767Z,26.50
2022-12-11T11:42:10.256Z,30.40
2022-12-11T11:43:10.236Z,28.60
2022-12-11T11:44:10.226Z,26.90
2022-12-11T11:45:10.458Z,26.40
2022-12-11T11:46:10.232Z,25.90
2022-12-11T11:47:10.203Z,25.00
2022-12-11T11:48:11.682Z,36.40
2022-12-11T11:49:10.178Z,25.90
2022-12-11T11:50:10.141Z,26.70
2022-12-11T11:51:10.135Z,27.40
2022-12-11T11:52:10.125Z,25.40
2022-12-11T11:53:10.136Z,26.30
2022-12-11T11:54:10.105Z,27.00
2022-12-11T11:55:10.777Z,27.20
2022-12-11T11:56:10.075Z,27.30
2022-12-11T11:57:10.067Z,29.00
2022-12-11T11:58:10.049Z,27.30
2022-12-11T11:59:10.047Z,27.10
2022-12-11T12:00:10.042Z,27.30
2022-12-11T12:01:10.012Z,28.00
2022-12-11T12:02:09.998Z,27.00
2022-12-11T12:03:10.021Z,26.60
2022-12-11T12:04:09.977Z,27.70
2022-12-11T12:05:10.086Z,28.10
2022-12-11T12:06:14.963Z,27.30
2022-12-11T12:07:10.961Z,26.50
2022-12-11T12:08:09.940Z,26.90
2022-12-11T12:09:09.918Z,27.70
2022-12-11T12:10:09.960Z,29.90
2022-12-11T12:11:09.888Z,26.10
2022-12-11T12:12:09.869Z,27.00
2022-12-11T12:13:30.213Z,27.60
2022-12-11T12:14:29.226Z,26.30
2022-12-11T12:15:11.033Z,28.60
2022-12-11T12:16:29.222Z,26.40
2022-12-11T12:17:10.897Z,25.70
2022-12-11T12:18:09.804Z,26.30
2022-12-11T12:19:09.802Z,24.80
2022-12-11T12:20:09.771Z,23.80
2022-12-11T12:21:09.761Z,25.30
2022-12-11T12:22:09.750Z,24.00
2022-12-11T12:23:09.749Z,24.70
2022-12-11T12:24:09.729Z,26.10
2022-12-11T12:25:10.062Z,25.50
2022-12-11T12:26:09.699Z,26.70
2022-12-11T12:27:29.176Z,25.70
2022-12-11T12:28:10.679Z,25.90
2022-12-11T12:29:09.680Z,26.20
2022-12-11T12:30:09.653Z,25.90
2022-12-11T12:31:09.695Z,25.70
2022-12-11T12:32:09.647Z,26.90
2022-12-11T12:33:09.631Z,26.90
2022-12-11T12:34:09.612Z,25.20
2022-12-11T12:35:09.994Z,23.90
2022-12-11T12:36:09.573Z,24.50
2022-12-11T12:37:09.561Z,24.80
2022-12-11T12:38:09.574Z,23.70
2022-12-11T12:39:09.551Z,23.70
2022-12-11T12:40:09.519Z,25.50
2022-12-11T12:41:09.524Z,23.80
2022-12-11T12:42:09.513Z,24.20
2022-12-11T12:43:09.497Z,23.00
2022-12-11T12:44:09.521Z,25.00
2022-12-11T12:45:09.871Z,22.80
2022-12-11T12:46:09.512Z,23.60
2022-12-11T12:47:09.444Z,24.50
2022-12-11T12:48:09.423Z,25.20
2022-12-11T12:49:09.683Z,23.20
2022-12-11T12:50:09.483Z,23.30
2022-12-11T12:51:09.383Z,24.40
2022-12-11T12:52:09.372Z,26.10